sensor_id;sensor_type;location;lat;lon;timestamp;P1;durP1;ratioP1;P2;durP2;ratioP2
34242;SDS011;20504;43.214;27.920;2022-07-09T00:01:26;5.77;;;3.30;;
34242;SDS011;20504;43.214;27.920;2022-07-09T00:03:52;8.73;;;3.50;;
34242;SDS011;20504;43.214;27.920;2022-07-09T00:06:17;6.53;;;3.47;;
34242;SDS011;20504;43.214;27.920;2022-07-09T00:08:43;5.97;;;3.80;;
34242;SDS011;20504;43.214;27.920;2022-07-09T00:11:08;7.30;;;3.13;;
34242;SDS011;20504;43.214;27.920;2022-07-09T00:13:33;5.47;;;3.53;;
34242;SDS011;20504;43.214;27.920;2022-07-09T00:15:59;6.27;;;3.40;;
34242;SDS011;20504;43.214;27.920;2022-07-09T00:18:24;6.13;;;3.37;;
34242;SDS011;20504;43.214;27.920;2022-07-09T00:20:49;4.83;;;3.23;;
34242;SDS011;20504;43.214;27.920;2022-07-09T00:23:15;6.67;;;3.40;;
34242;SDS011;20504;43.214;27.920;2022-07-09T00:25:40;3.30;;;2.93;;
34242;SDS011;20504;43.214;27.920;2022-07-09T00:28:05;4.20;;;3.57;;
34242;SDS011;20504;43.214;27.920;2022-07-09T00:30:31;5.30;;;3.27;;
34242;SDS011;20504;43.214;27.920;2022-07-09T00:32:56;6.70;;;3.50;;
34242;SDS011;20504;43.214;27.920;2022-07-09T00:35:22;8.67;;;3.60;;
34242;SDS011;20504;43.214;27.920;2022-07-09T00:37:47;5.77;;;3.13;;
34242;SDS011;20504;43.214;27.920;2022-07-09T00:40:12;5.27;;;3.40;;
34242;SDS011;20504;43.214;27.920;2022-07-09T00:42:38;7.50;;;3.20;;
34242;SDS011;20504;43.214;27.920;2022-07-09T00:45:03;4.87;;;3.30;;
34242;SDS011;20504;43.214;27.920;2022-07-09T00:47:29;5.93;;;3.17;;
34242;SDS011;20504;43.214;27.920;2022-07-09T00:49:54;5.03;;;3.27;;
34242;SDS011;20504;43.214;27.920;2022-07-09T00:52:19;5.87;;;3.17;;
34242;SDS011;20504;43.214;27.920;2022-07-09T00:54:45;4.17;;;3.37;;
34242;SDS011;20504;43.214;27.920;2022-07-09T00:57:10;8.50;;;3.27;;
34242;SDS011;20504;43.214;27.920;2022-07-09T00:59:37;7.73;;;3.67;;
34242;SDS011;20504;43.214;27.920;2022-07-09T01:02:03;3.85;;;3.30;;
34242;SDS011;20504;43.214;27.920;2022-07-09T01:04:28;6.73;;;3.43;;
34242;SDS011;20504;43.214;27.920;2022-07-09T01:06:54;5.23;;;3.40;;
34242;SDS011;20504;43.214;27.920;2022-07-09T01:09:19;8.70;;;3.60;;
34242;SDS011;20504;43.214;27.920;2022-07-09T01:11:46;6.47;;;3.50;;
34242;SDS011;20504;43.214;27.920;2022-07-09T01:14:11;4.47;;;3.03;;
34242;SDS011;20504;43.214;27.920;2022-07-09T01:16:36;6.57;;;3.60;;
34242;SDS011;20504;43.214;27.920;2022-07-09T01:19:02;4.23;;;3.60;;
34242;SDS011;20504;43.214;27.920;2022-07-09T01:21:28;6.60;;;3.77;;
34242;SDS011;20504;43.214;27.920;2022-07-09T01:23:53;4.97;;;3.37;;
34242;SDS011;20504;43.214;27.920;2022-07-09T01:26:18;4.23;;;3.43;;
34242;SDS011;20504;43.214;27.920;2022-07-09T01:28:47;6.97;;;3.40;;
34242;SDS011;20504;43.214;27.920;2022-07-09T01:31:12;7.47;;;3.67;;
34242;SDS011;20504;43.214;27.920;2022-07-09T01:33:37;9.93;;;3.70;;
34242;SDS011;20504;43.214;27.920;2022-07-09T01:36:03;4.13;;;3.50;;
34242;SDS011;20504;43.214;27.920;2022-07-09T01:38:28;6.87;;;3.80;;
34242;SDS011;20504;43.214;27.920;2022-07-09T01:40:54;5.70;;;3.50;;
34242;SDS011;20504;43.214;27.920;2022-07-09T01:43:19;6.43;;;3.67;;
34242;SDS011;20504;43.214;27.920;2022-07-09T01:45:44;4.00;;;3.30;;
34242;SDS011;20504;43.214;27.920;2022-07-09T01:48:10;8.07;;;3.60;;
34242;SDS011;20504;43.214;27.920;2022-07-09T01:50:35;5.60;;;3.90;;
34242;SDS011;20504;43.214;27.920;2022-07-09T01:53:01;6.78;;;3.65;;
34242;SDS011;20504;43.214;27.920;2022-07-09T01:55:27;8.53;;;4.07;;
34242;SDS011;20504;43.214;27.920;2022-07-09T01:57:52;7.90;;;3.77;;
34242;SDS011;20504;43.214;27.920;2022-07-09T02:00:17;5.27;;;3.20;;
34242;SDS011;20504;43.214;27.920;2022-07-09T02:02:46;6.40;;;3.50;;
34242;SDS011;20504;43.214;27.920;2022-07-09T02:05:12;5.83;;;3.30;;
34242;SDS011;20504;43.214;27.920;2022-07-09T02:07:37;4.80;;;3.17;;
34242;SDS011;20504;43.214;27.920;2022-07-09T02:10:03;6.17;;;3.50;;
34242;SDS011;20504;43.214;27.920;2022-07-09T02:12:28;6.20;;;3.42;;
34242;SDS011;20504;43.214;27.920;2022-07-09T02:14:54;4.93;;;3.40;;
34242;SDS011;20504;43.214;27.920;2022-07-09T02:17:19;7.20;;;3.73;;
34242;SDS011;20504;43.214;27.920;2022-07-09T02:19:45;8.07;;;3.30;;
34242;SDS011;20504;43.214;27.920;2022-07-09T02:22:10;7.70;;;3.43;;
34242;SDS011;20504;43.214;27.920;2022-07-09T02:24:35;5.07;;;3.47;;
34242;SDS011;20504;43.214;27.920;2022-07-09T02:27:01;6.10;;;3.33;;
34242;SDS011;20504;43.214;27.920;2022-07-09T02:29:26;5.43;;;3.50;;
34242;SDS011;20504;43.214;27.920;2022-07-09T02:31:52;12.73;;;3.97;;
34242;SDS011;20504;43.214;27.920;2022-07-09T02:34:20;6.78;;;3.33;;
34242;SDS011;20504;43.214;27.920;2022-07-09T02:36:45;5.47;;;3.63;;
34242;SDS011;20504;43.214;27.920;2022-07-09T02:39:10;7.77;;;3.70;;
34242;SDS011;20504;43.214;27.920;2022-07-09T02:41:36;10.47;;;4.03;;
34242;SDS011;20504;43.214;27.920;2022-07-09T02:44:01;9.07;;;4.07;;
34242;SDS011;20504;43.214;27.920;2022-07-09T02:46:26;8.87;;;3.87;;
34242;SDS011;20504;43.214;27.920;2022-07-09T02:48:52;4.73;;;3.70;;
34242;SDS011;20504;43.214;27.920;2022-07-09T02:51:17;3.73;;;3.43;;
34242;SDS011;20504;43.214;27.920;2022-07-09T02:53:42;6.10;;;3.53;;
34242;SDS011;20504;43.214;27.920;2022-07-09T02:56:08;7.20;;;3.97;;
34242;SDS011;20504;43.214;27.920;2022-07-09T02:58:33;6.83;;;3.67;;
34242;SDS011;20504;43.214;27.920;2022-07-09T03:00:58;6.20;;;3.83;;
34242;SDS011;20504;43.214;27.920;2022-07-09T03:03:24;6.47;;;3.70;;
34242;SDS011;20504;43.214;27.920;2022-07-09T03:05:50;8.63;;;3.80;;
34242;SDS011;20504;43.214;27.920;2022-07-09T03:08:15;7.97;;;3.70;;
34242;SDS011;20504;43.214;27.920;2022-07-09T03:10:41;6.03;;;4.03;;
34242;SDS011;20504;43.214;27.920;2022-07-09T03:13:06;6.10;;;3.60;;
34242;SDS011;20504;43.214;27.920;2022-07-09T03:15:32;5.07;;;4.00;;
34242;SDS011;20504;43.214;27.920;2022-07-09T03:17:57;8.63;;;4.10;;
34242;SDS011;20504;43.214;27.920;2022-07-09T03:20:22;9.77;;;4.03;;
34242;SDS011;20504;43.214;27.920;2022-07-09T03:22:48;10.53;;;3.77;;
34242;SDS011;20504;43.214;27.920;2022-07-09T03:25:13;7.10;;;4.20;;
34242;SDS011;20504;43.214;27.920;2022-07-09T03:27:38;7.73;;;4.33;;
34242;SDS011;20504;43.214;27.920;2022-07-09T03:30:04;5.80;;;4.23;;
34242;SDS011;20504;43.214;27.920;2022-07-09T03:32:29;8.03;;;3.77;;
34242;SDS011;20504;43.214;27.920;2022-07-09T03:34:55;7.53;;;4.50;;
34242;SDS011;20504;43.214;27.920;2022-07-09T03:37:20;6.57;;;4.43;;
34242;SDS011;20504;43.214;27.920;2022-07-09T03:39:46;9.77;;;4.43;;
34242;SDS011;20504;43.214;27.920;2022-07-09T03:42:12;5.93;;;4.20;;
34242;SDS011;20504;43.214;27.920;2022-07-09T03:44:37;6.87;;;3.83;;
34242;SDS011;20504;43.214;27.920;2022-07-09T03:47:03;5.87;;;4.10;;
34242;SDS011;20504;43.214;27.920;2022-07-09T03:49:28;8.63;;;4.00;;
34242;SDS011;20504;43.214;27.920;2022-07-09T03:51:54;7.00;;;3.90;;
34242;SDS011;20504;43.214;27.920;2022-07-09T03:54:19;15.50;;;4.80;;
34242;SDS011;20504;43.214;27.920;2022-07-09T03:56:44;5.80;;;4.10;;
34242;SDS011;20504;43.214;27.920;2022-07-09T03:59:10;9.43;;;4.57;;
34242;SDS011;20504;43.214;27.920;2022-07-09T04:01:35;10.27;;;4.53;;
34242;SDS011;20504;43.214;27.920;2022-07-09T04:04:01;6.93;;;4.20;;
34242;SDS011;20504;43.214;27.920;2022-07-09T04:06:26;6.03;;;4.27;;
34242;SDS011;20504;43.214;27.920;2022-07-09T04:08:51;8.03;;;4.93;;
34242;SDS011;20504;43.214;27.920;2022-07-09T04:11:17;8.37;;;4.30;;
34242;SDS011;20504;43.214;27.920;2022-07-09T04:13:42;8.00;;;4.63;;
34242;SDS011;20504;43.214;27.920;2022-07-09T04:16:07;4.80;;;4.00;;
34242;SDS011;20504;43.214;27.920;2022-07-09T04:18:33;7.73;;;4.63;;
34242;SDS011;20504;43.214;27.920;2022-07-09T04:20:59;6.07;;;3.90;;
34242;SDS011;20504;43.214;27.920;2022-07-09T04:23:24;9.67;;;4.47;;
34242;SDS011;20504;43.214;27.920;2022-07-09T04:25:50;7.67;;;4.17;;
34242;SDS011;20504;43.214;27.920;2022-07-09T04:28:19;7.30;;;3.90;;
34242;SDS011;20504;43.214;27.920;2022-07-09T04:30:45;7.60;;;4.25;;
34242;SDS011;20504;43.214;27.920;2022-07-09T04:33:10;10.45;;;3.97;;
34242;SDS011;20504;43.214;27.920;2022-07-09T04:35:36;8.77;;;4.63;;
34242;SDS011;20504;43.214;27.920;2022-07-09T04:38:01;13.17;;;3.90;;
34242;SDS011;20504;43.214;27.920;2022-07-09T04:40:27;6.05;;;3.53;;
34242;SDS011;20504;43.214;27.920;2022-07-09T04:42:52;5.77;;;3.80;;
34242;SDS011;20504;43.214;27.920;2022-07-09T04:45:18;8.00;;;3.70;;
34242;SDS011;20504;43.214;27.920;2022-07-09T04:47:43;8.47;;;3.97;;
34242;SDS011;20504;43.214;27.920;2022-07-09T04:50:09;6.17;;;3.33;;
34242;SDS011;20504;43.214;27.920;2022-07-09T04:52:36;5.47;;;3.55;;
34242;SDS011;20504;43.214;27.920;2022-07-09T04:55:01;10.37;;;4.27;;
34242;SDS011;20504;43.214;27.920;2022-07-09T04:57:26;8.20;;;4.07;;
34242;SDS011;20504;43.214;27.920;2022-07-09T04:59:52;8.33;;;4.27;;
34242;SDS011;20504;43.214;27.920;2022-07-09T05:02:17;5.33;;;3.50;;
34242;SDS011;20504;43.214;27.920;2022-07-09T05:04:43;9.97;;;3.37;;
34242;SDS011;20504;43.214;27.920;2022-07-09T05:07:09;4.45;;;3.47;;
34242;SDS011;20504;43.214;27.920;2022-07-09T05:09:34;6.50;;;3.70;;
34242;SDS011;20504;43.214;27.920;2022-07-09T05:11:59;6.70;;;3.60;;
34242;SDS011;20504;43.214;27.920;2022-07-09T05:14:25;7.17;;;3.77;;
34242;SDS011;20504;43.214;27.920;2022-07-09T05:16:50;7.90;;;3.60;;
34242;SDS011;20504;43.214;27.920;2022-07-09T05:19:16;8.30;;;3.60;;
34242;SDS011;20504;43.214;27.920;2022-07-09T05:21:42;6.13;;;3.43;;
34242;SDS011;20504;43.214;27.920;2022-07-09T05:24:07;12.20;;;3.70;;
34242;SDS011;20504;43.214;27.920;2022-07-09T05:26:33;10.13;;;3.53;;
34242;SDS011;20504;43.214;27.920;2022-07-09T05:28:58;5.47;;;3.40;;
34242;SDS011;20504;43.214;27.920;2022-07-09T05:31:24;9.33;;;3.43;;
34242;SDS011;20504;43.214;27.920;2022-07-09T05:33:49;8.93;;;3.50;;
34242;SDS011;20504;43.214;27.920;2022-07-09T05:36:16;13.13;;;3.47;;
34242;SDS011;20504;43.214;27.920;2022-07-09T05:38:42;7.90;;;3.17;;
34242;SDS011;20504;43.214;27.920;2022-07-09T05:41:07;12.83;;;3.73;;
34242;SDS011;20504;43.214;27.920;2022-07-09T05:43:33;7.35;;;3.08;;
34242;SDS011;20504;43.214;27.920;2022-07-09T05:45:58;8.50;;;3.10;;
34242;SDS011;20504;43.214;27.920;2022-07-09T05:48:24;6.53;;;2.83;;
34242;SDS011;20504;43.214;27.920;2022-07-09T05:50:49;12.47;;;3.30;;
34242;SDS011;20504;43.214;27.920;2022-07-09T05:53:15;5.33;;;3.20;;
34242;SDS011;20504;43.214;27.920;2022-07-09T05:55:40;9.67;;;3.13;;
34242;SDS011;20504;43.214;27.920;2022-07-09T05:58:06;4.33;;;3.03;;
34242;SDS011;20504;43.214;27.920;2022-07-09T06:00:31;10.03;;;3.60;;
34242;SDS011;20504;43.214;27.920;2022-07-09T06:02:56;14.80;;;3.50;;
34242;SDS011;20504;43.214;27.920;2022-07-09T06:05:22;15.10;;;3.50;;
34242;SDS011;20504;43.214;27.920;2022-07-09T06:07:47;7.43;;;2.77;;
34242;SDS011;20504;43.214;27.920;2022-07-09T06:10:12;8.07;;;2.80;;
34242;SDS011;20504;43.214;27.920;2022-07-09T06:12:39;6.10;;;2.90;;
34242;SDS011;20504;43.214;27.920;2022-07-09T06:15:05;6.63;;;2.67;;
34242;SDS011;20504;43.214;27.920;2022-07-09T06:17:31;7.57;;;2.77;;
34242;SDS011;20504;43.214;27.920;2022-07-09T06:19:56;9.53;;;2.70;;
34242;SDS011;20504;43.214;27.920;2022-07-09T06:22:21;13.40;;;3.23;;
34242;SDS011;20504;43.214;27.920;2022-07-09T06:24:47;4.20;;;2.50;;
34242;SDS011;20504;43.214;27.920;2022-07-09T06:27:12;7.50;;;2.50;;
34242;SDS011;20504;43.214;27.920;2022-07-09T06:29:38;9.60;;;2.60;;
34242;SDS011;20504;43.214;27.920;2022-07-09T06:32:03;13.93;;;2.53;;
34242;SDS011;20504;43.214;27.920;2022-07-09T06:34:29;6.13;;;2.57;;
34242;SDS011;20504;43.214;27.920;2022-07-09T06:36:54;7.33;;;2.47;;
34242;SDS011;20504;43.214;27.920;2022-07-09T06:39:19;7.63;;;2.83;;
34242;SDS011;20504;43.214;27.920;2022-07-09T06:42:04;10.32;;;2.75;;
34242;SDS011;20504;43.214;27.920;2022-07-09T06:46:55;12.15;;;3.10;;
34242;SDS011;20504;43.214;27.920;2022-07-09T06:49:20;6.97;;;2.37;;
34242;SDS011;20504;43.214;27.920;2022-07-09T06:51:45;11.93;;;2.40;;
34242;SDS011;20504;43.214;27.920;2022-07-09T06:54:10;9.50;;;2.80;;
34242;SDS011;20504;43.214;27.920;2022-07-09T06:56:36;6.97;;;2.90;;
34242;SDS011;20504;43.214;27.920;2022-07-09T06:59:01;18.47;;;2.80;;
34242;SDS011;20504;43.214;27.920;2022-07-09T07:01:26;10.83;;;2.70;;
34242;SDS011;20504;43.214;27.920;2022-07-09T07:03:52;19.90;;;3.57;;
34242;SDS011;20504;43.214;27.920;2022-07-09T07:06:17;7.80;;;2.47;;
34242;SDS011;20504;43.214;27.920;2022-07-09T07:08:43;7.73;;;2.60;;
34242;SDS011;20504;43.214;27.920;2022-07-09T07:11:08;7.77;;;2.87;;
34242;SDS011;20504;43.214;27.920;2022-07-09T07:13:34;15.70;;;5.03;;
34242;SDS011;20504;43.214;27.920;2022-07-09T07:16:00;8.07;;;2.30;;
34242;SDS011;20504;43.214;27.920;2022-07-09T07:18:25;9.53;;;2.53;;
34242;SDS011;20504;43.214;27.920;2022-07-09T07:20:50;9.57;;;2.73;;
34242;SDS011;20504;43.214;27.920;2022-07-09T07:23:16;13.20;;;2.97;;
34242;SDS011;20504;43.214;27.920;2022-07-09T07:25:41;4.37;;;2.50;;
34242;SDS011;20504;43.214;27.920;2022-07-09T07:28:06;6.20;;;2.77;;
34242;SDS011;20504;43.214;27.920;2022-07-09T07:30:32;10.57;;;2.83;;
34242;SDS011;20504;43.214;27.920;2022-07-09T07:33:01;8.70;;;2.65;;
34242;SDS011;20504;43.214;27.920;2022-07-09T07:35:26;7.85;;;2.88;;
34242;SDS011;20504;43.214;27.920;2022-07-09T07:37:51;7.40;;;2.43;;
34242;SDS011;20504;43.214;27.920;2022-07-09T07:40:17;7.30;;;2.83;;
34242;SDS011;20504;43.214;27.920;2022-07-09T07:42:42;4.13;;;2.60;;
34242;SDS011;20504;43.214;27.920;2022-07-09T07:45:08;7.40;;;2.43;;
34242;SDS011;20504;43.214;27.920;2022-07-09T07:47:33;6.30;;;2.63;;
34242;SDS011;20504;43.214;27.920;2022-07-09T07:49:58;5.33;;;2.23;;
34242;SDS011;20504;43.214;27.920;2022-07-09T07:52:25;3.75;;;2.58;;
34242;SDS011;20504;43.214;27.920;2022-07-09T07:54:50;6.40;;;2.50;;
34242;SDS011;20504;43.214;27.920;2022-07-09T07:57:15;9.40;;;2.70;;
34242;SDS011;20504;43.214;27.920;2022-07-09T07:59:41;5.57;;;3.00;;
34242;SDS011;20504;43.214;27.920;2022-07-09T08:02:06;7.10;;;2.47;;
34242;SDS011;20504;43.214;27.920;2022-07-09T08:04:32;8.02;;;3.17;;
34242;SDS011;20504;43.214;27.920;2022-07-09T08:06:57;12.87;;;4.20;;
34242;SDS011;20504;43.214;27.920;2022-07-09T08:09:23;10.97;;;3.47;;
34242;SDS011;20504;43.214;27.920;2022-07-09T08:11:48;7.63;;;3.10;;
34242;SDS011;20504;43.214;27.920;2022-07-09T08:14:13;6.40;;;2.60;;
34242;SDS011;20504;43.214;27.920;2022-07-09T08:16:39;5.37;;;2.90;;
34242;SDS011;20504;43.214;27.920;2022-07-09T08:19:04;9.33;;;3.13;;
34242;SDS011;20504;43.214;27.920;2022-07-09T08:21:29;4.00;;;2.97;;
34242;SDS011;20504;43.214;27.920;2022-07-09T08:23:55;11.23;;;3.20;;
34242;SDS011;20504;43.214;27.920;2022-07-09T08:26:21;3.55;;;2.78;;
34242;SDS011;20504;43.214;27.920;2022-07-09T08:28:47;8.27;;;2.83;;
34242;SDS011;20504;43.214;27.920;2022-07-09T08:31:13;4.97;;;2.83;;
34242;SDS011;20504;43.214;27.920;2022-07-09T08:33:38;9.68;;;2.63;;
34242;SDS011;20504;43.214;27.920;2022-07-09T08:36:03;9.33;;;3.30;;
34242;SDS011;20504;43.214;27.920;2022-07-09T08:38:29;4.37;;;2.77;;
34242;SDS011;20504;43.214;27.920;2022-07-09T08:43:20;7.30;;;2.70;;
34242;SDS011;20504;43.214;27.920;2022-07-09T08:45:47;6.55;;;2.92;;
34242;SDS011;20504;43.214;27.920;2022-07-09T08:48:13;13.77;;;3.25;;
34242;SDS011;20504;43.214;27.920;2022-07-09T08:50:39;3.67;;;2.73;;
34242;SDS011;20504;43.214;27.920;2022-07-09T08:53:05;8.60;;;2.90;;
34242;SDS011;20504;43.214;27.920;2022-07-09T08:55:30;7.60;;;2.73;;
34242;SDS011;20504;43.214;27.920;2022-07-09T08:57:56;5.03;;;2.90;;
34242;SDS011;20504;43.214;27.920;2022-07-09T09:00:21;13.90;;;3.73;;
34242;SDS011;20504;43.214;27.920;2022-07-09T09:02:46;6.27;;;2.93;;
34242;SDS011;20504;43.214;27.920;2022-07-09T09:05:12;5.67;;;2.80;;
34242;SDS011;20504;43.214;27.920;2022-07-09T09:07:38;9.55;;;2.97;;
34242;SDS011;20504;43.214;27.920;2022-07-09T09:10:04;7.80;;;3.38;;
34242;SDS011;20504;43.214;27.920;2022-07-09T09:12:29;9.40;;;2.80;;
34242;SDS011;20504;43.214;27.920;2022-07-09T09:14:55;7.80;;;3.20;;
34242;SDS011;20504;43.214;27.920;2022-07-09T09:17:20;9.77;;;3.03;;
34242;SDS011;20504;43.214;27.920;2022-07-09T09:19:45;10.43;;;3.13;;
34242;SDS011;20504;43.214;27.920;2022-07-09T09:22:14;3.63;;;2.80;;
34242;SDS011;20504;43.214;27.920;2022-07-09T09:24:39;5.60;;;2.55;;
34242;SDS011;20504;43.214;27.920;2022-07-09T09:27:06;12.80;;;2.80;;
34242;SDS011;20504;43.214;27.920;2022-07-09T09:29:31;5.73;;;2.77;;
34242;SDS011;20504;43.214;27.920;2022-07-09T09:31:57;8.23;;;3.10;;
34242;SDS011;20504;43.214;27.920;2022-07-09T09:34:22;10.57;;;2.80;;
34242;SDS011;20504;43.214;27.920;2022-07-09T09:36:51;11.50;;;2.88;;
34242;SDS011;20504;43.214;27.920;2022-07-09T09:39:21;7.15;;;3.20;;
34242;SDS011;20504;43.214;27.920;2022-07-09T09:44:12;6.50;;;3.47;;
34242;SDS011;20504;43.214;27.920;2022-07-09T09:46:39;7.72;;;2.85;;
34242;SDS011;20504;43.214;27.920;2022-07-09T09:51:33;10.95;;;2.83;;
34242;SDS011;20504;43.214;27.920;2022-07-09T09:53:59;9.70;;;2.90;;
34242;SDS011;20504;43.214;27.920;2022-07-09T09:56:33;10.38;;;3.00;;
34242;SDS011;20504;43.214;27.920;2022-07-09T09:58:59;5.40;;;2.60;;
34242;SDS011;20504;43.214;27.920;2022-07-09T10:03:50;5.87;;;2.53;;
34242;SDS011;20504;43.214;27.920;2022-07-09T10:06:16;10.73;;;3.50;;
34242;SDS011;20504;43.214;27.920;2022-07-09T10:08:41;10.63;;;3.03;;
34242;SDS011;20504;43.214;27.920;2022-07-09T10:11:07;6.97;;;2.70;;
34242;SDS011;20504;43.214;27.920;2022-07-09T10:13:32;11.90;;;2.60;;
34242;SDS011;20504;43.214;27.920;2022-07-09T10:15:58;5.83;;;3.30;;
34242;SDS011;20504;43.214;27.920;2022-07-09T10:18:23;7.63;;;2.47;;
34242;SDS011;20504;43.214;27.920;2022-07-09T10:20:54;7.97;;;3.03;;
34242;SDS011;20504;43.214;27.920;2022-07-09T10:23:23;8.27;;;3.08;;
34242;SDS011;20504;43.214;27.920;2022-07-09T10:25:49;6.05;;;2.88;;
34242;SDS011;20504;43.214;27.920;2022-07-09T10:28:18;13.02;;;3.40;;
34242;SDS011;20504;43.214;27.920;2022-07-09T10:30:43;11.45;;;3.00;;
34242;SDS011;20504;43.214;27.920;2022-07-09T10:33:22;10.13;;;3.15;;
34242;SDS011;20504;43.214;27.920;2022-07-09T10:35:51;10.45;;;2.80;;
34242;SDS011;20504;43.214;27.920;2022-07-09T10:38:17;3.35;;;2.78;;
34242;SDS011;20504;43.214;27.920;2022-07-09T10:40:46;12.88;;;2.72;;
34242;SDS011;20504;43.214;27.920;2022-07-09T10:43:12;6.68;;;2.78;;
34242;SDS011;20504;43.214;27.920;2022-07-09T10:45:44;7.57;;;2.35;;
34242;SDS011;20504;43.214;27.920;2022-07-09T10:48:10;12.10;;;2.92;;
34242;SDS011;20504;43.214;27.920;2022-07-09T10:50:37;12.93;;;2.50;;
34242;SDS011;20504;43.214;27.920;2022-07-09T10:53:03;10.18;;;2.67;;
34242;SDS011;20504;43.214;27.920;2022-07-09T10:55:29;6.78;;;2.20;;
34242;SDS011;20504;43.214;27.920;2022-07-09T10:57:55;10.27;;;3.40;;
34242;SDS011;20504;43.214;27.920;2022-07-09T11:00:21;8.90;;;2.80;;
34242;SDS011;20504;43.214;27.920;2022-07-09T11:03:05;12.18;;;3.08;;
34242;SDS011;20504;43.214;27.920;2022-07-09T11:05:34;11.70;;;3.13;;
34242;SDS011;20504;43.214;27.920;2022-07-09T11:08:03;6.45;;;2.72;;
34242;SDS011;20504;43.214;27.920;2022-07-09T11:10:30;3.30;;;2.53;;
34242;SDS011;20504;43.214;27.920;2022-07-09T11:12:56;8.20;;;2.50;;
34242;SDS011;20504;43.214;27.920;2022-07-09T11:15:24;12.43;;;2.10;;
34242;SDS011;20504;43.214;27.920;2022-07-09T11:17:55;8.57;;;2.90;;
34242;SDS011;20504;43.214;27.920;2022-07-09T11:20:20;10.93;;;2.70;;
34242;SDS011;20504;43.214;27.920;2022-07-09T11:22:46;14.57;;;2.70;;
34242;SDS011;20504;43.214;27.920;2022-07-09T11:25:12;6.78;;;2.65;;
34242;SDS011;20504;43.214;27.920;2022-07-09T11:27:41;17.02;;;3.10;;
34242;SDS011;20504;43.214;27.920;2022-07-09T11:30:07;7.32;;;3.08;;
34242;SDS011;20504;43.214;27.920;2022-07-09T11:32:36;8.38;;;2.83;;
34242;SDS011;20504;43.214;27.920;2022-07-09T11:35:01;9.17;;;2.87;;
34242;SDS011;20504;43.214;27.920;2022-07-09T11:37:27;7.60;;;2.67;;
34242;SDS011;20504;43.214;27.920;2022-07-09T11:39:52;9.43;;;2.70;;
34242;SDS011;20504;43.214;27.920;2022-07-09T11:42:20;10.38;;;2.75;;
34242;SDS011;20504;43.214;27.920;2022-07-09T11:44:55;9.40;;;2.73;;
34242;SDS011;20504;43.214;27.920;2022-07-09T11:47:30;8.93;;;3.10;;
34242;SDS011;20504;43.214;27.920;2022-07-09T11:49:56;7.82;;;2.75;;
34242;SDS011;20504;43.214;27.920;2022-07-09T11:52:29;6.55;;;2.50;;
34242;SDS011;20504;43.214;27.920;2022-07-09T11:54:58;7.33;;;2.57;;
34242;SDS011;20504;43.214;27.920;2022-07-09T11:57:24;5.18;;;2.60;;
34242;SDS011;20504;43.214;27.920;2022-07-09T11:59:50;9.77;;;3.17;;
34242;SDS011;20504;43.214;27.920;2022-07-09T12:05:11;15.20;;;3.08;;
34242;SDS011;20504;43.214;27.920;2022-07-09T12:10:05;7.63;;;2.90;;
34242;SDS011;20504;43.214;27.920;2022-07-09T12:12:32;10.93;;;2.92;;
34242;SDS011;20504;43.214;27.920;2022-07-09T12:14:58;10.38;;;3.25;;
34242;SDS011;20504;43.214;27.920;2022-07-09T12:19:49;13.88;;;2.63;;
34242;SDS011;20504;43.214;27.920;2022-07-09T12:22:14;9.33;;;2.60;;
34242;SDS011;20504;43.214;27.920;2022-07-09T12:24:39;9.60;;;2.73;;
34242;SDS011;20504;43.214;27.920;2022-07-09T12:29:30;10.83;;;2.70;;
34242;SDS011;20504;43.214;27.920;2022-07-09T12:34:20;9.87;;;3.03;;
34242;SDS011;20504;43.214;27.920;2022-07-09T12:39:11;11.10;;;2.60;;
34242;SDS011;20504;43.214;27.920;2022-07-09T12:44:01;13.93;;;2.83;;
34242;SDS011;20504;43.214;27.920;2022-07-09T12:48:52;8.20;;;2.80;;
34242;SDS011;20504;43.214;27.920;2022-07-09T12:53:42;13.13;;;3.00;;
34242;SDS011;20504;43.214;27.920;2022-07-09T12:58:33;7.97;;;3.13;;
34242;SDS011;20504;43.214;27.920;2022-07-09T13:00:58;8.53;;;3.37;;
34242;SDS011;20504;43.214;27.920;2022-07-09T13:03:23;8.23;;;3.17;;
34242;SDS011;20504;43.214;27.920;2022-07-09T13:05:49;7.00;;;3.43;;
34242;SDS011;20504;43.214;27.920;2022-07-09T13:08:14;8.70;;;3.43;;
34242;SDS011;20504;43.214;27.920;2022-07-09T13:10:39;11.40;;;3.60;;
34242;SDS011;20504;43.214;27.920;2022-07-09T13:13:05;6.53;;;2.60;;
34242;SDS011;20504;43.214;27.920;2022-07-09T13:15:30;8.93;;;2.97;;
34242;SDS011;20504;43.214;27.920;2022-07-09T13:17:56;9.65;;;3.95;;
34242;SDS011;20504;43.214;27.920;2022-07-09T13:20:21;9.80;;;3.73;;
34242;SDS011;20504;43.214;27.920;2022-07-09T13:22:46;11.57;;;3.40;;
34242;SDS011;20504;43.214;27.920;2022-07-09T13:25:12;8.03;;;3.50;;
34242;SDS011;20504;43.214;27.920;2022-07-09T13:27:37;9.97;;;3.50;;
34242;SDS011;20504;43.214;27.920;2022-07-09T13:30:02;11.10;;;3.80;;
34242;SDS011;20504;43.214;27.920;2022-07-09T13:32:28;12.07;;;3.63;;
34242;SDS011;20504;43.214;27.920;2022-07-09T13:34:53;6.63;;;3.77;;
34242;SDS011;20504;43.214;27.920;2022-07-09T13:37:19;11.97;;;4.20;;
34242;SDS011;20504;43.214;27.920;2022-07-09T13:39:44;11.60;;;3.70;;
34242;SDS011;20504;43.214;27.920;2022-07-09T13:42:10;7.13;;;3.70;;
34242;SDS011;20504;43.214;27.920;2022-07-09T13:44:35;10.87;;;4.03;;
34242;SDS011;20504;43.214;27.920;2022-07-09T13:47:00;16.30;;;4.63;;
34242;SDS011;20504;43.214;27.920;2022-07-09T13:49:26;16.17;;;5.47;;
34242;SDS011;20504;43.214;27.920;2022-07-09T13:51:51;12.67;;;4.73;;
34242;SDS011;20504;43.214;27.920;2022-07-09T13:54:16;10.73;;;4.23;;
34242;SDS011;20504;43.214;27.920;2022-07-09T13:56:42;17.70;;;4.73;;
34242;SDS011;20504;43.214;27.920;2022-07-09T13:59:07;11.10;;;4.00;;
34242;SDS011;20504;43.214;27.920;2022-07-09T14:01:32;26.07;;;4.83;;
34242;SDS011;20504;43.214;27.920;2022-07-09T14:03:58;14.47;;;4.20;;
34242;SDS011;20504;43.214;27.920;2022-07-09T14:06:23;23.27;;;4.87;;
34242;SDS011;20504;43.214;27.920;2022-07-09T14:08:49;22.33;;;6.25;;
34242;SDS011;20504;43.214;27.920;2022-07-09T14:11:15;34.27;;;7.17;;
34242;SDS011;20504;43.214;27.920;2022-07-09T14:13:41;16.77;;;5.70;;
34242;SDS011;20504;43.214;27.920;2022-07-09T14:16:08;22.35;;;5.70;;
34242;SDS011;20504;43.214;27.920;2022-07-09T14:18:34;24.80;;;6.33;;
34242;SDS011;20504;43.214;27.920;2022-07-09T14:20:59;15.87;;;6.87;;
34242;SDS011;20504;43.214;27.920;2022-07-09T14:23:25;25.93;;;6.93;;
34242;SDS011;20504;43.214;27.920;2022-07-09T14:25:50;14.90;;;5.30;;
34242;SDS011;20504;43.214;27.920;2022-07-09T14:28:15;15.63;;;6.07;;
34242;SDS011;20504;43.214;27.920;2022-07-09T14:30:41;19.60;;;4.97;;
34242;SDS011;20504;43.214;27.920;2022-07-09T14:33:06;9.40;;;3.83;;
34242;SDS011;20504;43.214;27.920;2022-07-09T14:35:32;9.77;;;3.37;;
34242;SDS011;20504;43.214;27.920;2022-07-09T14:37:58;4.50;;;3.40;;
34242;SDS011;20504;43.214;27.920;2022-07-09T14:40:23;4.87;;;3.60;;
34242;SDS011;20504;43.214;27.920;2022-07-09T14:42:48;9.60;;;3.23;;
34242;SDS011;20504;43.214;27.920;2022-07-09T14:45:14;8.07;;;4.00;;
34242;SDS011;20504;43.214;27.920;2022-07-09T14:47:39;8.73;;;3.97;;
34242;SDS011;20504;43.214;27.920;2022-07-09T14:50:05;6.80;;;3.50;;
34242;SDS011;20504;43.214;27.920;2022-07-09T14:52:30;9.95;;;3.60;;
34242;SDS011;20504;43.214;27.920;2022-07-09T14:54:56;8.53;;;4.13;;
34242;SDS011;20504;43.214;27.920;2022-07-09T14:57:21;9.67;;;4.17;;
34242;SDS011;20504;43.214;27.920;2022-07-09T14:59:46;16.87;;;4.03;;